Moyer Aviation Incorporated

Pocono Mountains Airport

188 Airport Drive. Tobyhanna, PA 18466 

P: 570-839-7161
800-321-5890
F: 570-839-7162

Weather

Weather

Pocono Weather

KMPO 220610Z AUTO 11007KT 3/4SM BR VV002 18/18 A2982 RMK AO2 RAE04 P0000 T01830183

KMPO 220553Z AUTO 09005KT 1 1/4SM -RA BR OVC003 18/18 A2983 RMK AO2 SLP094 P0012 60052 T01830183 10183 20178 58022

KMPO 220541Z AUTO 11005KT 1 1/2SM -RA BR OVC004 18/18 A2984 RMK AO2 P0011 T01830183

KMPO 220521Z AUTO 11007KT 2 1/2SM RA BR OVC003 18/18 A2985 RMK AO2 P0007 T01830183

Allentown Weather

KABE 220551Z 08003KT 10SM FEW060 21/19 A2979 RMK AO2 RAE39 SLP085 P0001 60243 T02110194 10239 20211 56037

Wilkes-Barre Weather

KAVP 220554Z 33004KT 10SM SCT080 BKN110 21/19 A2978 RMK AO2 RAE53 SLP075 P0003 60008 T02110194 10217 20206 56026


* required field

Contact Us